Time;durP1;ratioP1;P1;durP2;ratioP2;P2;SDS_P1;SDS_P2;PMS_P1;PMS_P2;Temp;Humidity;BMP_temperature;BMP_pressure;BME280_temperature;BME280_humidity;BME280_pressure;Samples;Min_cycle;Max_cycle;Signal;HPM_P1;HPM_P2
2023/06/05 00:00:58;;;;;;;3.88;1.70;;;15.20;75.80;;;;;;4975013;28;20047;-79
2023/06/05 00:03:26;;;;;;;3.38;1.63;;;15.20;76.50;;;;;;4976953;28;20391;-80
2023/06/05 00:05:52;;;;;;;;;;;15.20;76.80;;;;;;4992370;28;20054;-79
2023/06/05 00:08:18;;;;;;;3.05;1.90;;;15.20;76.70;;;;;;4985794;28;19914;-79
2023/06/05 00:10:44;;;;;;;3.67;1.70;;;15.20;77.10;;;;;;4945332;28;20062;-79
2023/06/05 00:13:10;;;;;;;5.25;1.60;;;15.20;77.50;;;;;;4947097;28;20523;-79
2023/06/05 00:15:37;;;;;;;3.03;1.58;;;15.10;77.80;;;;;;4953597;29;20054;-79
2023/06/05 00:18:06;;;;;;;3.10;1.73;;;15.10;77.80;;;;;;4954906;28;20053;-79
2023/06/05 00:20:32;;;;;;;4.70;1.50;;;15.10;78.00;;;;;;4974026;28;20756;-80
2023/06/05 00:22:57;;;;;;;3.58;1.80;;;15.00;78.10;;;;;;4939051;28;20047;-80
2023/06/05 00:25:24;;;;;;;4.22;1.50;;;15.00;77.80;;;;;;4975442;28;20055;-80
2023/06/05 00:27:51;;;;;;;3.35;1.63;;;15.00;78.00;;;;;;4980531;28;20054;-79
2023/06/05 00:30:17;;;;;;;3.15;1.50;;;15.00;78.30;;;;;;4959826;28;20070;-79
2023/06/05 00:32:42;;;;;;;5.07;1.75;;;15.00;78.70;;;;;;4954745;28;20468;-80
2023/06/05 00:35:09;;;;;;;3.10;1.48;;;15.00;79.10;;;;;;4964303;28;20567;-80
2023/06/05 00:37:37;;;;;;;3.42;1.65;;;14.90;79.00;;;;;;4980530;28;20058;-80
2023/06/05 00:40:05;;;;;;;5.78;2.20;;;14.80;79.30;;;;;;4957730;28;20121;-78
2023/06/05 00:42:34;;;;;;;6.20;1.83;;;14.80;79.70;;;;;;4975641;28;20062;-78
2023/06/05 00:45:01;;;;;;;2.92;1.50;;;14.70;80.20;;;;;;4978788;28;20058;-78
2023/06/05 00:47:27;;;;;;;5.53;1.95;;;14.70;80.20;;;;;;4978623;28;20110;-78
2023/06/05 00:49:54;;;;;;;4.93;1.98;;;14.70;80.70;;;;;;4973090;28;20089;-79
2023/06/05 00:52:19;;;;;;;5.28;2.45;;;14.70;81.00;;;;;;4980533;28;20070;-79
2023/06/05 00:54:45;;;;;;;4.13;1.83;;;14.70;81.30;;;;;;4956464;28;20098;-79
2023/06/05 00:57:11;;;;;;;5.18;1.90;;;14.60;81.80;;;;;;4942921;28;20460;-79
2023/06/05 00:59:37;;;;;;;4.95;2.15;;;14.60;82.10;;;;;;4966918;28;20047;-80
2023/06/05 01:02:03;;;;;;;4.22;2.00;;;14.60;82.10;;;;;;4937136;28;20043;-79
2023/06/05 01:04:29;;;;;;;3.28;1.85;;;14.60;82.60;;;;;;4935944;29;20051;-79
2023/06/05 01:06:57;;;;;;;5.05;2.17;;;14.60;82.90;;;;;;4950110;28;20460;-79
2023/06/05 01:09:25;;;;;;;4.00;2.20;;;14.50;83.00;;;;;;4938775;29;20071;-78
2023/06/05 01:12:07;;;;;;;6.95;2.30;;;14.50;83.10;;;;;;4955116;28;20416;-78
2023/06/05 01:14:34;;;;;;;4.20;2.50;;;14.50;83.10;;;;;;4942570;28;20075;-78
2023/06/05 01:17:03;;;;;;;4.32;1.98;;;14.40;83.20;;;;;;4951626;29;20059;-78
2023/06/05 01:19:31;;;;;;;8.43;2.35;;;14.30;83.90;;;;;;4928547;29;20075;-78
2023/06/05 01:22:00;;;;;;;4.72;2.10;;;14.30;84.10;;;;;;4974085;28;20051;-78
2023/06/05 01:24:28;;;;;;;6.28;2.13;;;14.30;84.50;;;;;;4939447;28;20090;-78
2023/06/05 01:27:15;;;;;;;5.30;1.92;;;14.30;85.10;;;;;;4957721;29;20483;-78
2023/06/05 01:30:00;;;;;;;3.70;2.10;;;14.20;85.30;;;;;;4927854;29;20039;-78
2023/06/05 01:32:44;;;;;;;18.13;2.63;;;14.20;86.00;;;;;;4957788;29;20047;-78
2023/06/05 01:35:21;;;;;;;4.72;2.03;;;14.20;86.00;;;;;;4950214;29;20044;-78
2023/06/05 01:37:48;;;;;;;6.47;2.75;;;14.10;86.00;;;;;;4945884;29;20047;-79
2023/06/05 01:40:19;;;;;;;5.97;3.22;;;14.00;86.70;;;;;;4957942;28;20043;-79
2023/06/05 01:42:45;;;;;;;6.05;2.42;;;13.90;87.00;;;;;;4947938;29;20043;-79
2023/06/05 01:45:11;;;;;;;5.45;2.63;;;13.80;87.50;;;;;;4941952;29;20140;-79
2023/06/05 01:47:37;;;;;;;5.68;2.15;;;13.60;88.20;;;;;;4947580;29;20047;-78
2023/06/05 01:50:05;;;;;;;6.22;2.58;;;13.60;89.00;;;;;;4945321;29;20047;-78
2023/06/05 01:52:32;;;;;;;5.63;2.38;;;13.60;89.40;;;;;;4961166;29;20154;-79
2023/06/05 01:55:01;;;;;;;3.90;2.22;;;13.50;89.90;;;;;;4977383;28;20073;-79
2023/06/05 01:57:28;;;;;;;4.68;2.22;;;13.50;90.40;;;;;;4951539;29;20045;-79
2023/06/05 01:59:54;;;;;;;7.00;2.00;;;13.50;90.70;;;;;;4950228;29;20043;-79
2023/06/05 02:02:21;;;;;;;3.88;1.92;;;13.60;91.10;;;;;;4946952;29;20047;-80
2023/06/05 02:04:50;;;;;;;5.13;2.10;;;13.60;91.20;;;;;;4942105;29;20054;-79
2023/06/05 02:07:16;;;;;;;3.38;2.03;;;13.50;91.60;;;;;;4932888;29;20366;-79
2023/06/05 02:09:43;;;;;;;4.63;1.98;;;13.50;91.70;;;;;;4958102;28;20054;-79
2023/06/05 02:12:09;;;;;;;4.13;2.10;;;13.60;91.80;;;;;;4955060;28;20042;-78
2023/06/05 02:14:37;;;;;;;4.03;1.88;;;13.60;91.90;;;;;;4990739;28;20050;-78
2023/06/05 02:17:06;;;;;;;4.90;2.55;;;13.50;92.00;;;;;;4977788;28;20046;-78
2023/06/05 02:19:33;;;;;;;5.28;2.22;;;13.50;92.20;;;;;;4952544;28;20193;-79
2023/06/05 02:21:59;;;;;;;8.30;2.08;;;13.50;92.40;;;;;;4936463;28;20135;-79
2023/06/05 02:24:27;;;;;;;3.33;1.98;;;13.50;92.40;;;;;;4935052;28;20082;-79
2023/06/05 02:26:54;;;;;;;4.63;2.20;;;13.50;92.40;;;;;;4929905;28;20038;-78
2023/06/05 02:29:20;;;;;;;5.32;2.08;;;13.50;92.50;;;;;;4972432;28;20416;-78
2023/06/05 02:31:46;;;;;;;5.15;1.85;;;13.50;92.70;;;;;;4964665;28;20039;-79
2023/06/05 02:34:12;;;;;;;5.68;1.80;;;13.40;92.70;;;;;;4951133;28;20031;-79
2023/06/05 02:36:38;;;;;;;3.38;1.88;;;13.40;92.90;;;;;;4959631;28;20026;-79
2023/06/05 02:39:04;;;;;;;4.28;1.90;;;13.40;92.60;;;;;;4963562;28;20060;-78
2023/06/05 02:41:30;;;;;;;4.57;1.80;;;13.30;92.40;;;;;;4972448;28;20066;-79
2023/06/05 02:43:56;;;;;;;3.25;1.77;;;13.30;92.50;;;;;;4951202;29;20043;-78
2023/06/05 02:46:24;;;;;;;6.35;1.95;;;13.30;92.30;;;;;;4937305;28;20568;-80
2023/06/05 02:48:50;;;;;;;4.63;2.03;;;13.10;92.20;;;;;;4989493;28;20106;-78
2023/06/05 02:51:16;;;;;;;4.88;2.30;;;13.10;92.30;;;;;;4950111;29;20170;-79
2023/06/05 02:53:42;;;;;;;3.53;1.90;;;13.00;92.40;;;;;;4930454;28;20039;-78
2023/06/05 02:56:08;;;;;;;3.30;1.95;;;13.00;92.60;;;;;;4972683;28;20043;-78
2023/06/05 02:58:33;;;;;;;5.22;2.05;;;13.00;93.00;;;;;;4983146;28;20093;-79
2023/06/05 03:01:02;;;;;;;5.05;2.30;;;12.90;93.30;;;;;;4973939;28;20042;-79
2023/06/05 03:03:30;;;;;;;3.25;1.98;;;12.90;93.30;;;;;;4976045;28;20058;-78
2023/06/05 03:06:04;;;;;;;5.30;2.45;;;13.00;93.30;;;;;;4942465;28;20420;-77
2023/06/05 03:08:33;;;;;;;4.68;2.00;;;12.90;93.40;;;;;;4952182;28;20054;-78
2023/06/05 03:11:03;;;;;;;10.25;2.72;;;12.90;93.40;;;;;;4960140;28;20126;-77
2023/06/05 03:13:28;;;;;;;5.28;2.13;;;12.90;93.40;;;;;;4956311;28;20121;-77
2023/06/05 03:15:56;;;;;;;6.18;1.90;;;12.90;93.40;;;;;;4977822;28;20058;-77
2023/06/05 03:18:26;;;;;;;5.88;2.20;;;12.90;93.60;;;;;;4956077;28;20042;-77
2023/06/05 03:20:55;;;;;;;4.38;2.17;;;12.90;93.60;;;;;;4976926;28;20038;-77
2023/06/05 03:23:30;;;;;;;4.55;1.88;;;12.90;93.70;;;;;;4951857;28;20066;-80
2023/06/05 03:25:55;;;;;;;4.93;2.15;;;12.90;93.90;;;;;;5002504;28;20053;-79
2023/06/05 03:28:22;;;;;;;7.65;2.33;;;12.70;93.90;;;;;;4971224;28;20438;-80
2023/06/05 03:30:48;;;;;;;5.70;2.25;;;12.60;94.30;;;;;;4946544;28;20038;-79
2023/06/05 03:33:14;;;;;;;4.75;1.80;;;12.60;94.50;;;;;;4961381;28;20121;-80
2023/06/05 03:35:42;;;;;;;4.63;2.25;;;12.60;94.70;;;;;;4960041;28;20103;-80
2023/06/05 03:38:08;;;;;;;6.65;2.33;;;12.60;95.00;;;;;;4966877;28;20042;-79
2023/06/05 03:40:34;;;;;;;5.35;2.50;;;12.50;94.90;;;;;;4964765;28;20054;-79
2023/06/05 03:43:00;;;;;;;4.78;2.10;;;12.50;95.00;;;;;;4959959;28;20046;-79
2023/06/05 03:45:27;;;;;;;6.07;2.70;;;12.50;95.20;;;;;;4957037;28;20047;-79
2023/06/05 03:47:53;;;;;;;8.20;2.10;;;12.50;95.10;;;;;;4931216;28;20069;-80
2023/06/05 03:50:20;;;;;;;3.47;2.40;;;12.50;95.40;;;;;;4982128;28;20049;-80
2023/06/05 03:52:52;;;;;;;6.35;2.90;;;12.50;95.50;;;;;;4947736;28;20051;-79
2023/06/05 03:55:21;;;;;;;5.68;2.40;;;12.40;95.60;;;;;;4999172;28;20027;-79
2023/06/05 03:57:47;;;;;;;5.35;2.10;;;12.30;95.60;;;;;;4962616;28;20049;-79
2023/06/05 04:00:17;;;;;;;7.80;2.60;;;12.40;95.80;;;;;;4975997;28;20049;-78
2023/06/05 04:02:42;;;;;;;5.40;2.60;;;12.40;95.90;;;;;;4965998;28;20465;-78
2023/06/05 04:05:12;;;;;;;6.72;2.47;;;12.40;96.10;;;;;;4991549;28;20066;-78
2023/06/05 04:07:39;;;;;;;3.60;2.08;;;12.40;96.30;;;;;;4971193;28;20042;-79
2023/06/05 04:10:05;;;;;;;5.10;2.30;;;12.40;96.60;;;;;;4973793;28;20058;-79
2023/06/05 04:12:31;;;;;;;3.88;2.42;;;12.30;96.90;;;;;;4960727;28;20035;-79
2023/06/05 04:14:58;;;;;;;5.47;2.67;;;12.30;97.10;;;;;;4960592;28;20072;-79
2023/06/05 04:17:24;;;;;;;6.55;2.50;;;12.30;97.20;;;;;;4952719;28;20052;-78
2023/06/05 04:19:50;;;;;;;5.13;2.47;;;12.30;97.40;;;;;;4955978;28;20125;-79
2023/06/05 04:22:15;;;;;;;8.32;2.75;;;12.30;97.60;;;;;;4950072;28;20038;-79
2023/06/05 04:24:41;;;;;;;3.90;2.30;;;12.40;97.90;;;;;;4943124;28;20042;-79
2023/06/05 04:27:08;;;;;;;7.13;2.90;;;12.40;98.00;;;;;;4953866;28;20046;-79
2023/06/05 04:29:34;;;;;;;8.05;2.60;;;12.40;98.20;;;;;;4968751;28;20098;-79
2023/06/05 04:32:00;;;;;;;6.45;3.20;;;12.40;98.50;;;;;;4963703;28;20144;-79
2023/06/05 04:34:26;;;;;;;8.00;2.85;;;12.40;98.60;;;;;;4963826;28;20460;-78
2023/06/05 04:36:51;;;;;;;9.30;2.45;;;12.50;98.70;;;;;;4981655;28;20733;-78
2023/06/05 04:39:18;;;;;;;6.55;2.92;;;12.50;98.70;;;;;;4950114;28;20098;-78
2023/06/05 04:41:47;;;;;;;5.97;2.85;;;12.50;98.80;;;;;;4940491;28;20070;-79
2023/06/05 04:44:16;;;;;;;6.80;3.10;;;12.60;99.00;;;;;;4962047;28;20053;-79
2023/06/05 04:46:46;;;;;;;7.53;2.63;;;12.60;99.20;;;;;;4960984;28;20038;-79
2023/06/05 04:49:12;;;;;;;8.13;3.08;;;12.70;99.20;;;;;;5002586;28;20137;-79
2023/06/05 04:51:38;;;;;;;5.28;2.60;;;12.70;99.50;;;;;;4958260;28;20046;-79
2023/06/05 04:54:05;;;;;;;4.78;2.80;;;12.70;99.60;;;;;;4983353;28;20061;-79
2023/06/05 04:56:32;;;;;;;6.78;2.80;;;12.70;99.50;;;;;;4955071;28;20053;-79
2023/06/05 04:58:59;;;;;;;8.60;2.60;;;12.70;99.80;;;;;;4942085;28;20042;-79
2023/06/05 05:01:25;;;;;;;6.13;2.60;;;12.80;99.90;;;;;;4948607;28;20042;-80
2023/06/05 05:03:50;;;;;;;5.82;2.60;;;12.80;99.90;;;;;;4984216;28;20090;-79
2023/06/05 05:06:16;;;;;;;6.03;2.97;;;12.80;99.90;;;;;;4991054;28;20077;-80
2023/06/05 05:08:45;;;;;;;8.23;2.55;;;12.80;99.90;;;;;;4966036;28;20049;-79
2023/06/05 05:11:11;;;;;;;5.65;2.78;;;12.90;99.90;;;;;;4950464;28;20075;-79
2023/06/05 05:13:37;;;;;;;4.32;2.55;;;12.90;99.90;;;;;;4972593;28;20074;-79
2023/06/05 05:16:03;;;;;;;7.50;3.20;;;13.00;99.90;;;;;;4973571;28;20062;-79
2023/06/05 05:18:29;;;;;;;6.65;3.15;;;13.00;99.90;;;;;;4966593;28;20060;-79
2023/06/05 05:20:55;;;;;;;7.80;2.97;;;13.00;99.90;;;;;;4964095;28;20050;-79
2023/06/05 05:23:30;;;;;;;7.57;2.95;;;13.10;99.90;;;;;;4954189;28;20042;-79
2023/06/05 05:25:55;;;;;;;7.82;2.95;;;13.10;99.90;;;;;;4988551;28;20497;-80
2023/06/05 05:28:22;;;;;;;6.65;2.85;;;13.10;99.90;;;;;;4961706;28;20042;-80
2023/06/05 05:30:48;;;;;;;8.82;2.88;;;13.20;99.90;;;;;;4938904;28;20451;-80
2023/06/05 05:33:14;;;;;;;8.02;3.05;;;13.20;99.90;;;;;;4988680;28;20038;-79
2023/06/05 05:35:40;;;;;;;7.32;3.50;;;13.30;99.90;;;;;;4941730;28;20038;-79
2023/06/05 05:38:06;;;;;;;5.78;3.30;;;13.30;99.90;;;;;;4935634;28;20039;-79
2023/06/05 05:40:32;;;;;;;5.90;2.85;;;13.40;99.90;;;;;;4943906;28;20637;-81
2023/06/05 05:42:58;;;;;;;9.35;3.90;;;13.40;99.90;;;;;;4957271;28;20478;-81
2023/06/05 05:45:24;;;;;;;6.35;3.45;;;13.50;99.90;;;;;;4968110;28;20370;-79
2023/06/05 05:47:49;;;;;;;5.82;2.97;;;13.60;99.90;;;;;;4980809;28;20038;-79
2023/06/05 05:50:18;;;;;;;5.60;2.92;;;13.60;99.90;;;;;;4954241;28;20646;-79
2023/06/05 05:52:44;;;;;;;7.32;2.97;;;13.70;99.90;;;;;;4959664;28;20043;-79
2023/06/05 05:55:10;;;;;;;6.60;2.97;;;13.70;99.90;;;;;;4961163;28;20042;-79
2023/06/05 05:57:36;;;;;;;5.93;3.10;;;13.70;99.90;;;;;;4951416;28;20038;-79
2023/06/05 06:00:07;;;;;;;8.43;3.63;;;13.80;99.90;;;;;;4955511;28;20061;-79
2023/06/05 06:02:34;;;;;;;7.70;2.72;;;13.90;99.90;;;;;;4955188;28;20052;-79
2023/06/05 06:05:02;;;;;;;6.88;2.80;;;14.00;99.90;;;;;;4990216;28;20081;-79
2023/06/05 06:07:28;;;;;;;5.35;2.85;;;14.00;99.90;;;;;;4952394;28;20604;-80
2023/06/05 06:09:54;;;;;;;7.22;2.67;;;14.10;99.70;;;;;;4974521;28;20059;-80
2023/06/05 06:12:20;;;;;;;5.18;2.30;;;14.10;99.60;;;;;;4948033;28;20050;-80
2023/06/05 06:14:48;;;;;;;5.45;2.30;;;14.10;99.50;;;;;;4984459;28;20089;-80
2023/06/05 06:17:14;;;;;;;;;;;14.30;99.60;;;;;;4953779;28;20847;-80
2023/06/05 06:19:40;;;;;;;6.32;2.78;;;14.30;99.50;;;;;;4961986;28;19921;-80
2023/06/05 06:22:11;;;;;;;4.65;2.58;;;14.30;99.30;;;;;;4971749;28;20067;-80
2023/06/05 06:24:39;;;;;;;6.35;2.65;;;14.40;99.20;;;;;;4954549;28;20859;-80
2023/06/05 06:27:06;;;;;;;4.72;2.20;;;14.40;99.10;;;;;;4946431;28;20071;-80
2023/06/05 06:29:32;;;;;;;4.10;2.40;;;14.50;99.10;;;;;;4963234;28;20039;-80
2023/06/05 06:31:57;;;;;;;5.78;2.80;;;14.60;98.90;;;;;;4959742;28;20038;-80
2023/06/05 06:34:24;;;;;;;4.32;2.50;;;14.60;98.70;;;;;;4959965;28;20046;-80
2023/06/05 06:36:50;;;;;;;6.15;2.33;;;14.70;98.60;;;;;;4959165;28;20046;-79
2023/06/05 06:39:22;;;;;;;5.78;2.65;;;14.80;98.50;;;;;;4961761;28;20051;-79
2023/06/05 06:41:48;;;;;;;3.85;2.33;;;14.80;98.40;;;;;;4934801;28;20366;-79
2023/06/05 06:44:15;;;;;;;4.25;2.10;;;14.90;98.50;;;;;;4961954;28;20082;-79
2023/06/05 06:46:41;;;;;;;5.15;2.33;;;14.90;98.40;;;;;;4977778;28;20094;-79
2023/06/05 06:49:07;;;;;;;4.63;2.15;;;15.00;98.70;;;;;;4967271;28;20048;-80
2023/06/05 06:51:33;;;;;;;3.33;2.22;;;15.10;98.50;;;;;;4973877;28;20039;-80
2023/06/05 06:53:59;;;;;;;4.50;2.25;;;15.20;98.40;;;;;;4968277;28;20046;-80
2023/06/05 06:56:25;;;;;;;8.35;2.75;;;15.20;98.00;;;;;;4955633;28;20059;-80
2023/06/05 06:58:53;;;;;;;6.32;2.42;;;15.30;97.80;;;;;;4954025;28;20187;-80
2023/06/05 07:01:19;;;;;;;7.78;2.40;;;15.40;97.80;;;;;;4946404;28;20051;-80
2023/06/05 07:03:46;;;;;;;5.47;1.95;;;15.40;97.70;;;;;;4956971;28;20058;-80
2023/06/05 07:06:13;;;;;;;5.85;2.03;;;15.50;97.60;;;;;;4955138;28;20066;-80
2023/06/05 07:08:40;;;;;;;6.20;2.33;;;15.50;97.40;;;;;;4976796;28;20046;-80
2023/06/05 07:11:06;;;;;;;3.70;2.05;;;15.60;97.30;;;;;;4972932;28;20105;-79
2023/06/05 07:13:32;;;;;;;5.35;2.22;;;15.70;97.70;;;;;;4948825;28;20044;-79
2023/06/05 07:15:57;;;;;;;4.07;2.05;;;15.80;97.30;;;;;;4975438;28;20038;-79
2023/06/05 07:18:23;;;;;;;6.80;2.70;;;15.80;97.20;;;;;;4970096;28;20041;-79
2023/06/05 07:20:49;;;;;;;5.82;2.45;;;15.90;97.10;;;;;;4943159;28;20440;-79
2023/06/05 07:23:17;;;;;;;6.40;2.30;;;16.00;96.80;;;;;;4960867;28;20118;-79
2023/06/05 07:25:43;;;;;;;4.78;2.08;;;16.10;96.80;;;;;;4948712;28;20056;-79
2023/06/05 07:28:11;;;;;;;5.93;2.10;;;16.20;96.80;;;;;;4940004;28;20049;-79
2023/06/05 07:30:43;;;;;;;5.68;2.72;;;16.20;96.30;;;;;;4962309;28;20046;-80
2023/06/05 07:33:10;;;;;;;5.07;2.30;;;16.30;96.20;;;;;;4966304;28;20061;-80
2023/06/05 07:35:36;;;;;;;3.45;2.25;;;16.30;96.00;;;;;;4952424;28;20056;-80
2023/06/05 07:38:02;;;;;;;4.28;2.28;;;16.40;95.80;;;;;;4985359;28;20051;-80
2023/06/05 07:40:28;;;;;;;3.28;1.98;;;16.40;95.70;;;;;;4969172;28;20506;-80
2023/06/05 07:42:54;;;;;;;4.95;2.33;;;16.50;95.90;;;;;;4973051;28;20046;-80
2023/06/05 07:45:20;;;;;;;4.47;2.30;;;16.70;95.70;;;;;;4966544;28;20042;-80
2023/06/05 07:47:45;;;;;;;5.10;2.15;;;16.70;94.90;;;;;;4957660;28;20371;-80
2023/06/05 07:50:11;;;;;;;3.28;1.90;;;16.80;94.60;;;;;;4970461;28;20092;-80
2023/06/05 07:52:37;;;;;;;3.90;1.83;;;17.00;94.80;;;;;;4948391;28;20527;-80
2023/06/05 07:55:04;;;;;;;9.98;2.28;;;17.00;94.80;;;;;;4969497;28;20056;-80
2023/06/05 07:57:29;;;;;;;6.38;2.03;;;17.00;95.10;;;;;;4948702;28;20110;-81
2023/06/05 07:59:55;;;;;;;2.42;1.70;;;17.10;94.90;;;;;;4966295;28;20096;-81
2023/06/05 08:02:21;;;;;;;6.00;2.00;;;17.30;94.40;;;;;;4956427;28;20145;-81
2023/06/05 08:04:48;;;;;;;5.10;1.83;;;17.40;94.30;;;;;;4968001;28;20044;-81
2023/06/05 08:07:13;;;;;;;4.45;2.40;;;17.60;93.30;;;;;;4952310;28;20081;-81
2023/06/05 08:09:40;;;;;;;5.20;2.10;;;17.60;93.70;;;;;;4981850;28;20081;-81
2023/06/05 08:12:06;;;;;;;4.97;1.80;;;17.60;93.60;;;;;;4982324;28;20100;-82
2023/06/05 08:14:33;;;;;;;3.55;1.70;;;17.70;93.20;;;;;;4953719;28;20096;-82
2023/06/05 08:16:59;;;;;;;8.20;1.75;;;17.80;93.10;;;;;;4963727;28;20054;-82
2023/06/05 08:19:24;;;;;;;4.10;1.80;;;17.90;92.60;;;;;;4942650;28;20141;-82
2023/06/05 08:21:52;;;;;;;5.80;2.15;;;18.20;90.90;;;;;;4969248;28;20046;-82
2023/06/05 08:24:20;;;;;;;4.25;1.80;;;18.10;91.00;;;;;;4969166;28;20363;-82
2023/06/05 08:26:47;;;;;;;5.45;2.15;;;18.20;88.00;;;;;;4938580;28;20117;-82
2023/06/05 08:29:13;;;;;;;5.70;1.80;;;18.30;88.30;;;;;;4964501;28;20045;-82
2023/06/05 08:31:39;;;;;;;4.22;1.90;;;18.40;88.40;;;;;;4947821;28;20054;-81
2023/06/05 08:34:05;;;;;;;7.03;2.03;;;18.50;87.30;;;;;;4939341;28;20046;-81
2023/06/05 08:36:32;;;;;;;3.70;1.60;;;18.50;88.40;;;;;;4973478;28;20042;-81
2023/06/05 08:39:02;;;;;;;3.55;1.77;;;18.50;88.60;;;;;;4962926;28;20038;-81
2023/06/05 08:41:30;;;;;;;3.50;1.55;;;18.60;87.80;;;;;;4939772;28;20042;-81
2023/06/05 08:43:57;;;;;;;3.80;1.70;;;18.90;83.60;;;;;;4940224;28;20077;-81
2023/06/05 08:46:26;;;;;;;4.40;1.73;;;18.80;82.10;;;;;;4966647;28;20054;-81
2023/06/05 08:48:53;;;;;;;3.88;1.50;;;19.00;78.30;;;;;;4974012;28;20352;-81
2023/06/05 08:51:22;;;;;;;5.18;1.80;;;19.00;79.30;;;;;;4984885;28;20668;-81
2023/06/05 08:54:12;;;;;;;4.50;1.65;;;19.10;79.80;;;;;;4950075;28;20047;-83
2023/06/05 08:56:38;;;;;;;4.03;1.95;;;19.10;80.40;;;;;;4999512;28;20038;-80
2023/06/05 08:59:08;;;;;;;3.97;1.60;;;19.20;81.20;;;;;;4968075;28;20041;-80
2023/06/05 09:01:34;;;;;;;4.32;1.50;;;19.30;80.30;;;;;;4969314;28;20049;-82
2023/06/05 09:03:59;;;;;;;4.60;1.45;;;19.30;81.00;;;;;;4933223;28;20038;-81
2023/06/05 09:06:27;;;;;;;3.20;1.90;;;19.50;79.30;;;;;;4954628;28;20043;-81
2023/06/05 09:08:53;;;;;;;2.30;1.30;;;19.60;78.60;;;;;;4960971;28;20137;-81
2023/06/05 09:11:29;;;;;;;4.50;1.90;;;19.60;78.90;;;;;;4949485;28;20128;-80
2023/06/05 09:13:56;;;;;;;4.43;1.90;;;19.80;76.90;;;;;;4943876;28;20072;-81
2023/06/05 09:16:22;;;;;;;7.60;1.63;;;19.70;78.00;;;;;;4969960;28;20074;-81
2023/06/05 09:18:56;;;;;;;7.40;1.73;;;19.80;78.80;;;;;;4956052;28;20045;-81
2023/06/05 09:21:28;;;;;;;4.70;1.40;;;19.90;77.50;;;;;;4974462;28;20057;-82
2023/06/05 09:24:09;;;;;;;4.82;1.52;;;20.00;78.00;;;;;;4972111;28;20043;-82
2023/06/05 09:26:50;;;;;;;2.95;1.30;;;20.10;75.60;;;;;;4937313;28;20047;-81
2023/06/05 09:29:25;;;;;;;6.75;1.60;;;20.20;73.70;;;;;;4942609;28;20672;-81
2023/06/05 09:31:52;;;;;;;5.38;1.50;;;20.30;74.90;;;;;;4988015;28;20725;-81
2023/06/05 09:34:41;;;;;;;4.00;1.40;;;20.40;73.80;;;;;;4932343;28;20053;-82
2023/06/05 09:37:10;;;;;;;2.67;1.35;;;20.50;73.10;;;;;;4950558;28;20477;-81
2023/06/05 09:39:40;;;;;;;4.20;1.35;;;20.50;72.60;;;;;;4975338;28;20046;-81
2023/06/05 09:42:06;;;;;;;3.33;1.42;;;20.70;75.40;;;;;;4978463;28;20062;-82
2023/06/05 09:44:32;;;;;;;5.18;1.50;;;20.90;72.60;;;;;;4955282;28;20054;-81
2023/06/05 09:47:02;;;;;;;4.07;1.58;;;20.90;69.90;;;;;;4964263;28;20121;-81
2023/06/05 09:49:48;;;;;;;4.57;1.60;;;21.00;71.60;;;;;;4962498;28;20359;-81
2023/06/05 09:52:17;;;;;;;5.70;1.40;;;21.10;71.10;;;;;;4967234;28;20048;-82
2023/06/05 09:54:46;;;;;;;9.40;1.73;;;21.30;72.60;;;;;;4960292;28;20144;-80
2023/06/05 09:57:14;;;;;;;3.53;1.10;;;21.20;70.00;;;;;;4948089;28;20046;-80
2023/06/05 09:59:55;;;;;;;3.55;1.40;;;21.40;67.20;;;;;;4968788;28;20050;-81
2023/06/05 10:02:25;;;;;;;4.35;1.75;;;21.40;67.00;;;;;;4972036;28;20053;-81
2023/06/05 10:05:04;;;;;;;3.13;1.48;;;21.60;66.80;;;;;;4951854;28;20126;-81
2023/06/05 10:07:35;;;;;;;3.50;1.67;;;21.80;67.00;;;;;;4951715;28;20104;-81
2023/06/05 10:10:02;;;;;;;4.60;1.80;;;21.90;65.90;;;;;;4966671;28;20124;-81
2023/06/05 10:12:30;;;;;;;5.43;1.95;;;21.90;64.60;;;;;;4950650;28;20125;-81
2023/06/05 10:14:59;;;;;;;3.58;1.65;;;21.90;65.90;;;;;;4956624;28;20046;-81
2023/06/05 10:17:26;;;;;;;6.50;1.70;;;21.90;65.50;;;;;;4967624;28;20070;-81
2023/06/05 10:19:52;;;;;;;3.67;1.35;;;22.10;66.50;;;;;;4956607;28;20050;-81
2023/06/05 10:22:21;;;;;;;3.42;1.50;;;22.30;61.80;;;;;;4946405;28;20523;-82
2023/06/05 10:24:53;;;;;;;3.97;1.70;;;22.50;60.20;;;;;;4940942;28;20065;-81
2023/06/05 10:27:48;;;;;;;4.60;1.95;;;22.50;57.90;;;;;;4954345;28;20057;-82
2023/06/05 10:30:36;;;;;;;3.80;1.50;;;22.30;55.90;;;;;;4987684;28;20045;-81
2023/06/05 10:33:21;;;;;;;3.55;1.75;;;22.30;57.00;;;;;;4969475;28;20042;-82
2023/06/05 10:35:52;;;;;;;2.17;1.27;;;22.40;58.70;;;;;;4971569;28;20100;-81
2023/06/05 10:38:20;;;;;;;5.85;1.50;;;22.60;59.80;;;;;;4949281;28;20080;-81
2023/06/05 10:40:56;;;;;;;7.10;1.50;;;22.80;60.90;;;;;;4955790;28;20045;-81
2023/06/05 10:43:25;;;;;;;3.03;1.60;;;22.80;59.30;;;;;;4973126;28;20101;-81
2023/06/05 10:45:52;;;;;;;3.03;1.40;;;23.00;58.40;;;;;;4973698;28;20076;-81
2023/06/05 10:48:18;;;;;;;3.15;1.42;;;23.00;56.90;;;;;;4983847;28;20046;-81
2023/06/05 10:50:44;;;;;;;6.53;1.83;;;23.30;57.70;;;;;;4985000;28;20105;-81
2023/06/05 10:53:41;;;;;;;2.90;1.58;;;23.20;55.60;;;;;;4970849;28;20045;-82
2023/06/05 10:56:07;;;;;;;2.53;1.60;;;23.00;55.70;;;;;;4983074;28;20053;-82
2023/06/05 10:58:33;;;;;;;4.30;1.85;;;23.00;56.50;;;;;;4937799;28;20522;-82
2023/06/05 11:01:19;;;;;;;2.58;1.30;;;23.10;57.40;;;;;;4950356;28;20046;-81
2023/06/05 11:04:00;;;;;;;5.78;2.03;;;23.20;55.80;;;;;;4949997;28;20046;-82
2023/06/05 11:06:28;;;;;;;4.13;1.67;;;23.30;55.40;;;;;;4969998;28;20046;-82
2023/06/05 11:09:12;;;;;;;4.85;1.48;;;23.20;56.80;;;;;;4946449;28;20504;-81
2023/06/05 11:11:57;;;;;;;3.10;1.55;;;23.50;56.70;;;;;;4980902;28;20049;-82
2023/06/05 11:14:42;;;;;;;2.58;1.70;;;23.50;56.20;;;;;;4954504;28;20080;-81
2023/06/05 11:17:28;;;;;;;4.60;1.75;;;23.50;56.10;;;;;;4947484;28;20126;-81
2023/06/05 11:19:54;;;;;;;7.00;2.10;;;23.50;56.60;;;;;;4975165;28;20125;-81
2023/06/05 11:22:21;;;;;;;3.97;1.50;;;23.60;55.10;;;;;;4945253;28;20066;-81
2023/06/05 11:24:47;;;;;;;4.60;1.58;;;23.70;54.70;;;;;;4981315;28;20101;-80
2023/06/05 11:27:43;;;;;;;3.17;1.50;;;23.60;53.60;;;;;;4954514;28;20038;-81
2023/06/05 11:30:19;;;;;;;4.88;1.30;;;23.70;53.80;;;;;;4948647;28;20049;-82
2023/06/05 11:32:46;;;;;;;5.90;1.70;;;23.70;53.40;;;;;;4952660;28;20054;-81
2023/06/05 11:35:12;;;;;;;4.25;1.50;;;23.90;55.40;;;;;;4961088;28;20057;-81
2023/06/05 11:37:39;;;;;;;3.63;1.50;;;24.20;55.10;;;;;;4958493;28;20050;-81
2023/06/05 11:40:08;;;;;;;6.25;1.70;;;24.30;56.00;;;;;;4968923;28;20088;-81
2023/06/05 11:42:38;;;;;;;3.13;1.70;;;24.30;53.20;;;;;;4948673;28;20047;-81
2023/06/05 11:45:14;;;;;;;6.13;1.60;;;24.10;52.70;;;;;;4948505;28;20047;-81
2023/06/05 11:47:39;;;;;;;3.97;1.70;;;24.20;53.60;;;;;;4946586;28;20042;-82
2023/06/05 11:50:14;;;;;;;2.95;1.48;;;24.40;51.70;;;;;;4962589;28;20053;-81
2023/06/05 11:52:39;;;;;;;3.42;1.60;;;24.30;51.80;;;;;;4981002;28;20491;-81
2023/06/05 11:55:18;;;;;;;4.45;1.90;;;24.40;53.30;;;;;;4968387;28;20050;-81
2023/06/05 11:57:46;;;;;;;3.25;1.65;;;24.60;53.90;;;;;;4939870;28;20074;-81
2023/06/05 12:00:12;;;;;;;5.15;1.60;;;24.70;52.40;;;;;;4963729;28;20472;-81
2023/06/05 12:02:43;;;;;;;3.83;1.80;;;24.70;50.10;;;;;;4975975;28;20391;-80
2023/06/05 12:05:09;;;;;;;3.97;1.52;;;24.70;51.30;;;;;;4929139;28;20047;-81
2023/06/05 12:07:39;;;;;;;4.30;1.65;;;24.80;50.70;;;;;;4950685;28;20046;-81
2023/06/05 12:10:06;;;;;;;2.92;1.40;;;25.00;51.60;;;;;;4962451;28;20072;-81
2023/06/05 12:12:49;;;;;;;2.58;1.45;;;24.90;51.70;;;;;;4961909;28;20125;-81
2023/06/05 12:15:15;;;;;;;4.00;1.50;;;25.20;50.70;;;;;;4962487;28;20042;-81
2023/06/05 12:17:40;;;;;;;4.90;1.55;;;25.30;50.30;;;;;;4956419;28;20079;-81
2023/06/05 12:20:08;;;;;;;3.90;1.70;;;25.30;52.00;;;;;;4963411;28;20055;-81
2023/06/05 12:22:34;;;;;;;2.83;1.50;;;25.40;49.90;;;;;;4982605;28;20050;-81
2023/06/05 12:25:20;;;;;;;5.03;1.73;;;25.40;51.00;;;;;;4960531;28;20045;-81
2023/06/05 12:27:48;;;;;;;7.03;1.90;;;25.40;49.90;;;;;;4963358;28;20042;-81
2023/06/05 12:30:16;;;;;;;6.72;1.60;;;25.50;49.50;;;;;;4957961;28;20038;-81
2023/06/05 12:32:44;;;;;;;3.83;1.65;;;25.60;48.70;;;;;;4970238;28;20050;-81
2023/06/05 12:35:22;;;;;;;4.85;1.60;;;25.70;48.70;;;;;;4968831;28;20456;-81
2023/06/05 12:37:49;;;;;;;4.57;1.58;;;25.80;49.50;;;;;;4952829;28;20038;-81
2023/06/05 12:40:17;;;;;;;3.63;1.98;;;25.70;48.10;;;;;;4964570;28;20050;-81
2023/06/05 12:42:43;;;;;;;;;;;25.80;49.60;;;;;;4946974;28;20465;-81
2023/06/05 12:45:09;;;;;;;2.80;1.60;;;25.90;48.50;;;;;;4985444;28;20004;-81
2023/06/05 12:47:35;;;;;;;2.70;1.60;;;25.70;46.70;;;;;;4968572;28;20057;-81
2023/06/05 12:50:03;;;;;;;3.45;1.73;;;25.80;48.20;;;;;;4944765;28;20051;-81
2023/06/05 12:52:29;;;;;;;3.58;1.60;;;26.10;48.90;;;;;;4968634;28;20504;-81
2023/06/05 12:54:56;;;;;;;2.80;1.48;;;26.10;47.50;;;;;;4974576;28;20046;-81